createdAt,value
2018-11-01T00:01:05.500Z,57.00
2018-11-01T00:03:34.094Z,57.58
2018-11-01T00:06:02.148Z,57.79
2018-11-01T00:08:30.212Z,57.40
2018-11-01T00:10:58.264Z,57.23
2018-11-01T00:13:26.332Z,57.60
2018-11-01T00:15:54.560Z,58.25
2018-11-01T00:18:22.612Z,57.34
2018-11-01T00:20:50.685Z,57.77
2018-11-01T00:23:18.771Z,57.76
2018-11-01T00:25:46.828Z,57.46
2018-11-01T00:28:14.892Z,58.04
2018-11-01T00:30:42.940Z,57.88
2018-11-01T00:33:11.003Z,57.78
2018-11-01T00:35:39.056Z,57.60
2018-11-01T00:38:07.101Z,57.65
2018-11-01T00:40:35.173Z,57.62
2018-11-01T00:43:03.245Z,58.22
2018-11-01T00:45:31.308Z,58.53
2018-11-01T00:47:59.368Z,58.05
2018-11-01T00:50:27.422Z,58.92
2018-11-01T00:52:55.481Z,58.52
2018-11-01T00:55:23.524Z,58.65
2018-11-01T00:57:51.703Z,58.00
2018-11-01T01:00:19.778Z,58.15
2018-11-01T01:02:47.891Z,58.39
2018-11-01T01:05:15.943Z,58.69
2018-11-01T01:07:43.996Z,58.23
2018-11-01T01:10:14.847Z,58.77
2018-11-01T01:12:43.722Z,58.91
2018-11-01T01:15:11.787Z,59.34
2018-11-01T01:17:40.086Z,59.01
2018-11-01T01:20:10.528Z,58.94
2018-11-01T01:22:38.640Z,58.95
2018-11-01T01:25:08.477Z,59.21
2018-11-01T01:27:36.768Z,59.74
2018-11-01T01:30:05.389Z,59.32
2018-11-01T01:32:33.435Z,59.56
2018-11-01T01:35:01.501Z,59.52
2018-11-01T01:37:29.568Z,59.45
2018-11-01T01:39:57.617Z,59.73
2018-11-01T01:42:29.874Z,59.89
2018-11-01T01:44:57.927Z,59.70
2018-11-01T01:47:25.997Z,59.34
2018-11-01T01:49:54.052Z,59.88
2018-11-01T01:52:22.109Z,59.77
2018-11-01T01:54:50.160Z,59.44
2018-11-01T01:57:18.212Z,60.33
2018-11-01T01:59:46.259Z,60.44
2018-11-01T02:02:14.319Z,60.08
2018-11-01T02:04:42.395Z,59.94
2018-11-01T02:07:10.508Z,60.03
2018-11-01T02:09:38.555Z,60.35
2018-11-01T02:12:06.639Z,60.19
2018-11-01T02:14:34.716Z,60.15
2018-11-01T02:17:02.752Z,59.87
2018-11-01T02:19:30.852Z,60.29
2018-11-01T02:21:58.889Z,60.45
2018-11-01T02:24:26.939Z,60.30
2018-11-01T02:26:54.983Z,59.89
2018-11-01T02:29:23.032Z,59.69
2018-11-01T02:31:51.082Z,59.32
2018-11-01T02:34:19.136Z,59.94
2018-11-01T02:36:47.220Z,59.80
2018-11-01T02:39:15.276Z,60.13
2018-11-01T02:41:43.332Z,59.31
2018-11-01T02:44:11.420Z,60.50
2018-11-01T02:46:39.601Z,59.39
2018-11-01T02:49:08.404Z,60.07
2018-11-01T02:51:36.444Z,59.53
2018-11-01T02:54:04.504Z,59.98
2018-11-01T02:56:32.704Z,60.10
2018-11-01T02:59:00.797Z,60.36
2018-11-01T03:01:28.851Z,59.99
2018-11-01T03:03:56.913Z,59.78
2018-11-01T03:06:24.961Z,59.80
2018-11-01T03:08:53.002Z,59.80
2018-11-01T03:11:21.037Z,59.44
2018-11-01T03:13:49.089Z,59.99
2018-11-01T03:16:17.137Z,59.90
2018-11-01T03:18:45.196Z,58.90
2018-11-01T03:21:13.238Z,59.92
2018-11-01T03:23:41.281Z,59.83
2018-11-01T03:26:09.314Z,59.86
2018-11-01T03:28:37.365Z,59.65
2018-11-01T03:31:05.620Z,59.93
2018-11-01T03:33:33.688Z,59.71
2018-11-01T03:36:02.093Z,60.06
2018-11-01T03:38:30.245Z,60.11
2018-11-01T03:40:58.195Z,59.51
2018-11-01T03:43:26.263Z,59.75
2018-11-01T03:45:54.310Z,59.86
2018-11-01T03:48:22.367Z,59.79
2018-11-01T03:50:50.421Z,59.81
2018-11-01T03:53:18.540Z,60.05
2018-11-01T03:55:46.564Z,59.83
2018-11-01T03:58:14.620Z,60.05
2018-11-01T04:00:42.681Z,60.15
2018-11-01T04:03:10.743Z,60.46
2018-11-01T04:05:38.792Z,60.44
2018-11-01T04:08:06.849Z,60.04
2018-11-01T04:10:34.889Z,60.33
2018-11-01T04:13:02.949Z,60.25
2018-11-01T04:15:31.020Z,60.67
2018-11-01T04:17:59.068Z,60.71
2018-11-01T04:20:27.106Z,59.97
2018-11-01T04:22:55.153Z,60.38
2018-11-01T04:25:23.211Z,60.29
2018-11-01T04:27:51.314Z,60.78
2018-11-01T04:30:19.348Z,60.77
2018-11-01T04:32:47.428Z,60.09
2018-11-01T04:35:15.489Z,60.85
2018-11-01T04:37:43.533Z,60.44
2018-11-01T04:40:11.689Z,60.47
2018-11-01T04:42:40.039Z,60.47
2018-11-01T04:45:09.351Z,61.23
2018-11-01T04:47:37.472Z,61.83
2018-11-01T04:50:06.412Z,61.83
2018-11-01T04:52:34.488Z,61.42
2018-11-01T04:55:02.529Z,62.37
2018-11-01T04:57:30.572Z,62.42
2018-11-01T04:59:58.625Z,62.13
2018-11-01T05:02:26.684Z,62.62
2018-11-01T05:04:54.783Z,62.29
2018-11-01T05:07:22.836Z,62.43
2018-11-01T05:09:50.878Z,62.34
2018-11-01T05:12:18.933Z,62.33
2018-11-01T05:14:47.053Z,63.11
2018-11-01T05:17:15.089Z,63.39
2018-11-01T05:19:43.155Z,62.44
2018-11-01T05:22:11.192Z,63.26
2018-11-01T05:24:39.345Z,62.88
2018-11-01T05:27:07.313Z,63.38
2018-11-01T05:29:35.427Z,63.69
2018-11-01T05:32:03.460Z,63.27
2018-11-01T05:34:31.614Z,63.13
2018-11-01T05:36:59.592Z,63.34
2018-11-01T05:39:27.640Z,63.44
2018-11-01T05:41:55.682Z,64.09
2018-11-01T05:44:23.736Z,63.77
2018-11-01T05:46:51.780Z,64.29
2018-11-01T05:49:19.827Z,63.70
2018-11-01T05:51:47.867Z,63.74
2018-11-01T05:54:16.053Z,63.69
2018-11-01T05:56:44.103Z,63.50
2018-11-01T05:59:12.156Z,63.99
2018-11-01T06:01:45.668Z,63.65
2018-11-01T06:04:13.717Z,63.00
2018-11-01T06:06:41.780Z,63.53
2018-11-01T06:09:10.194Z,62.87
2018-11-01T06:11:38.248Z,62.93
2018-11-01T06:14:06.306Z,63.07
2018-11-01T06:16:34.360Z,62.44
2018-11-01T06:19:02.405Z,63.31
2018-11-01T06:21:30.456Z,62.84
2018-11-01T06:23:58.501Z,62.99
2018-11-01T06:26:26.577Z,63.62
2018-11-01T06:28:54.624Z,62.92
2018-11-01T06:31:22.705Z,62.91
2018-11-01T06:33:50.745Z,63.13
2018-11-01T06:36:18.805Z,62.61
2018-11-01T06:38:46.872Z,62.60
2018-11-01T06:41:14.940Z,63.00
2018-11-01T06:43:43.009Z,62.55
2018-11-01T06:46:11.072Z,62.27
2018-11-01T06:48:39.124Z,62.13
2018-11-01T06:51:07.452Z,65.99
2018-11-01T06:53:35.536Z,63.85
2018-11-01T06:56:03.608Z,63.22
2018-11-01T06:58:31.796Z,63.77
2018-11-01T07:00:59.744Z,63.86
2018-11-01T07:03:27.817Z,62.56
2018-11-01T07:05:55.884Z,62.61
2018-11-01T07:08:23.961Z,61.50
2018-11-01T07:10:52.016Z,61.29
2018-11-01T07:13:20.081Z,62.16
2018-11-01T07:15:48.164Z,61.42
2018-11-01T07:18:16.215Z,60.65
2018-11-01T07:20:44.347Z,60.47
2018-11-01T07:23:12.392Z,59.87
2018-11-01T07:25:40.497Z,58.39
2018-11-01T07:28:08.517Z,58.84
2018-11-01T07:30:36.577Z,57.75
2018-11-01T07:33:04.814Z,57.58
2018-11-01T07:35:32.803Z,57.03
2018-11-01T07:38:00.891Z,56.07
2018-11-01T07:40:28.933Z,56.54
2018-11-01T07:42:57.029Z,55.95
2018-11-01T07:45:25.121Z,55.71
2018-11-01T07:47:53.176Z,55.69
2018-11-01T07:50:21.233Z,55.47
2018-11-01T07:52:49.366Z,55.08
2018-11-01T07:55:17.370Z,55.13
2018-11-01T07:57:45.488Z,56.36
2018-11-01T08:00:15.141Z,55.12
2018-11-01T08:02:43.952Z,55.45
2018-11-01T08:05:12.514Z,55.07
2018-11-01T08:07:41.108Z,54.95
2018-11-01T08:10:11.361Z,55.05
2018-11-01T08:12:39.616Z,55.21
2018-11-01T08:15:10.073Z,55.95
2018-11-01T08:17:38.123Z,56.10
2018-11-01T08:20:07.408Z,56.37
2018-11-01T08:22:35.258Z,58.01
2018-11-01T08:25:03.347Z,55.06
2018-11-01T08:27:31.393Z,55.66
2018-11-01T08:29:59.676Z,55.86
2018-11-01T08:32:27.755Z,55.95
2018-11-01T08:34:55.824Z,55.43
2018-11-01T08:37:23.897Z,55.74
2018-11-01T08:39:51.973Z,55.33
2018-11-01T08:42:20.051Z,55.02
2018-11-01T08:44:48.109Z,54.87
2018-11-01T08:47:16.166Z,54.80
2018-11-01T08:49:44.253Z,53.98
2018-11-01T08:52:12.332Z,54.80
2018-11-01T08:54:40.392Z,54.01
2018-11-01T08:57:08.446Z,54.22
2018-11-01T08:59:36.524Z,53.49
2018-11-01T09:02:04.618Z,54.60
2018-11-01T09:04:32.668Z,53.86
2018-11-01T09:07:00.721Z,53.65
2018-11-01T09:09:28.808Z,53.65
2018-11-01T09:11:56.881Z,53.87
2018-11-01T09:14:24.976Z,54.11
2018-11-01T09:16:53.016Z,53.65
2018-11-01T09:19:21.094Z,53.89
2018-11-01T09:21:49.143Z,53.59
2018-11-01T09:24:17.232Z,53.60
2018-11-01T09:26:45.297Z,53.44
2018-11-01T09:29:13.366Z,53.47
2018-11-01T09:31:41.439Z,53.18
2018-11-01T09:34:09.511Z,52.99
2018-11-01T09:36:37.556Z,53.34
2018-11-01T09:39:07.904Z,53.31
2018-11-01T09:41:35.976Z,52.83
2018-11-01T09:44:04.041Z,53.31
2018-11-01T09:46:32.496Z,53.06
2018-11-01T09:49:00.440Z,52.76
2018-11-01T09:51:28.500Z,51.95
2018-11-01T09:53:56.564Z,51.97
2018-11-01T09:56:24.671Z,52.26
2018-11-01T09:58:52.732Z,52.80
2018-11-01T10:01:20.844Z,52.51
2018-11-01T10:03:48.899Z,52.66
2018-11-01T10:06:16.981Z,52.88
2018-11-01T10:08:45.026Z,52.85
2018-11-01T10:11:13.120Z,53.40
2018-11-01T10:13:41.183Z,54.85
2018-11-01T10:16:09.317Z,53.63
2018-11-01T10:18:37.305Z,53.85
2018-11-01T10:21:05.816Z,54.01
2018-11-01T10:23:33.878Z,54.32
2018-11-01T10:26:02.005Z,54.10
2018-11-01T10:28:30.083Z,54.06
2018-11-01T10:30:58.220Z,54.13
2018-11-01T10:33:26.360Z,53.98
2018-11-01T10:35:54.447Z,54.86
2018-11-01T10:38:22.696Z,54.20
2018-11-01T10:40:50.832Z,54.98
2018-11-01T10:43:18.846Z,55.13
2018-11-01T10:45:46.902Z,54.11
2018-11-01T10:48:14.976Z,54.08
2018-11-01T10:50:43.055Z,54.17
2018-11-01T10:53:11.124Z,53.81
2018-11-01T10:55:39.197Z,53.55
2018-11-01T10:58:07.256Z,54.28
2018-11-01T11:00:40.984Z,54.25
2018-11-01T11:03:08.884Z,53.76
2018-11-01T11:05:37.024Z,55.74
2018-11-01T11:08:05.091Z,53.67
2018-11-01T11:10:33.149Z,54.46
2018-11-01T11:13:01.277Z,53.48
2018-11-01T11:15:29.377Z,53.86
2018-11-01T11:17:57.509Z,53.00
2018-11-01T11:20:25.703Z,53.13
2018-11-01T11:22:53.692Z,52.47
2018-11-01T11:25:21.765Z,52.50
2018-11-01T11:27:49.843Z,52.87
2018-11-01T11:30:18.022Z,53.31
2018-11-01T11:32:45.976Z,53.48
2018-11-01T11:35:14.161Z,53.32
2018-11-01T11:37:42.228Z,53.82
2018-11-01T11:40:11.210Z,52.94
2018-11-01T11:42:39.580Z,52.80
2018-11-01T11:45:08.574Z,52.64
2018-11-01T11:47:36.656Z,52.19
2018-11-01T11:50:05.139Z,52.76
2018-11-01T11:52:33.212Z,52.95
2018-11-01T11:55:01.448Z,53.34
2018-11-01T11:57:29.488Z,53.77
2018-11-01T11:59:57.628Z,53.22
2018-11-01T12:02:25.758Z,52.41
2018-11-01T12:04:53.780Z,52.72
2018-11-01T12:07:21.920Z,53.02
2018-11-01T12:09:49.989Z,52.85
2018-11-01T12:12:18.108Z,52.47
2018-11-01T12:14:46.272Z,54.11
2018-11-01T12:17:14.326Z,52.84
2018-11-01T12:19:42.387Z,52.29
2018-11-01T12:22:10.497Z,52.59
2018-11-01T12:24:38.740Z,53.22
2018-11-01T12:27:06.820Z,53.27
2018-11-01T12:29:34.895Z,53.88
2018-11-01T12:32:02.949Z,52.90
2018-11-01T12:34:31.008Z,53.17
2018-11-01T12:36:59.244Z,54.06
2018-11-01T12:39:27.425Z,54.18
2018-11-01T12:41:55.523Z,53.12
2018-11-01T12:44:23.588Z,53.48
2018-11-01T12:46:51.744Z,52.92
2018-11-01T12:49:19.988Z,53.80
2018-11-01T12:51:48.063Z,53.00
2018-11-01T12:54:16.101Z,53.26
2018-11-01T12:56:44.158Z,53.93
2018-11-01T12:59:12.316Z,53.96
2018-11-01T13:01:40.412Z,53.44
2018-11-01T13:04:08.531Z,53.75
2018-11-01T13:06:36.622Z,53.52
2018-11-01T13:09:08.571Z,53.96
2018-11-01T13:11:36.667Z,54.05
2018-11-01T13:14:04.936Z,53.94
2018-11-01T13:16:33.024Z,54.09
2018-11-01T13:19:01.068Z,54.33
2018-11-01T13:21:29.125Z,53.94
2018-11-01T13:23:57.272Z,55.11
2018-11-01T13:26:25.392Z,55.24
2018-11-01T13:28:53.445Z,54.81
2018-11-01T13:31:21.532Z,54.57
2018-11-01T13:33:49.607Z,54.95
2018-11-01T13:36:17.673Z,54.91
2018-11-01T13:38:45.724Z,55.47
2018-11-01T13:41:14.234Z,54.63
2018-11-01T13:43:41.887Z,54.95
2018-11-01T13:46:09.952Z,54.58
2018-11-01T13:48:38.021Z,54.82
2018-11-01T13:51:06.101Z,54.79
2018-11-01T13:53:34.157Z,56.52
2018-11-01T13:56:02.210Z,55.37
2018-11-01T13:58:30.277Z,56.66
2018-11-01T14:00:58.328Z,55.37
2018-11-01T14:03:26.444Z,55.40
2018-11-01T14:05:54.729Z,55.61
2018-11-01T14:08:22.637Z,55.61
2018-11-01T14:10:50.672Z,55.88
2018-11-01T14:13:25.746Z,55.94
2018-11-01T14:15:53.628Z,56.01
2018-11-01T14:18:21.712Z,55.71
2018-11-01T14:20:49.808Z,56.16
2018-11-01T14:23:17.875Z,56.58
2018-11-01T14:25:45.953Z,56.63
2018-11-01T14:28:14.067Z,57.14
2018-11-01T14:30:42.133Z,56.90
2018-11-01T14:33:10.228Z,57.32
2018-11-01T14:35:38.347Z,57.40
2018-11-01T14:38:06.447Z,57.38
2018-11-01T14:40:34.488Z,57.72
2018-11-01T14:43:02.673Z,57.87
2018-11-01T14:45:30.707Z,57.50
2018-11-01T14:47:58.765Z,57.52
2018-11-01T14:50:26.820Z,57.77
2018-11-01T14:52:55.187Z,58.35
2018-11-01T14:55:24.095Z,57.96
2018-11-01T14:57:52.150Z,58.86
2018-11-01T15:00:19.063Z,58.51
2018-11-01T15:02:47.180Z,58.83
2018-11-01T15:05:15.279Z,59.04
2018-11-01T15:07:43.347Z,59.62
2018-11-01T15:10:14.057Z,59.50
2018-11-01T15:12:42.418Z,59.71
2018-11-01T15:15:10.904Z,59.72
2018-11-01T15:17:39.895Z,59.90
2018-11-01T15:20:08.274Z,59.45
2018-11-01T15:22:36.323Z,60.08
2018-11-01T15:25:04.719Z,60.06
2018-11-01T15:27:32.799Z,59.62
2018-11-01T15:30:00.869Z,59.89
2018-11-01T15:32:29.658Z,59.75
2018-11-01T15:34:58.444Z,59.80
2018-11-01T15:37:26.666Z,59.92
2018-11-01T15:39:55.285Z,59.94
2018-11-01T15:42:23.389Z,59.88
2018-11-01T15:44:51.635Z,59.82
2018-11-01T15:47:19.727Z,59.82
2018-11-01T15:49:47.828Z,60.34
2018-11-01T15:52:15.900Z,60.70
2018-11-01T15:54:43.972Z,60.84
2018-11-01T15:57:12.017Z,60.46
2018-11-01T15:59:40.213Z,60.71
2018-11-01T16:02:08.219Z,60.77
2018-11-01T16:04:36.291Z,61.13
2018-11-01T16:07:04.337Z,61.19
2018-11-01T16:09:32.399Z,61.54
2018-11-01T16:12:00.457Z,61.44
2018-11-01T16:14:28.524Z,61.71
2018-11-01T16:16:56.588Z,61.90
2018-11-01T16:19:24.721Z,61.72
2018-11-01T16:21:52.756Z,61.68
2018-11-01T16:24:20.838Z,62.04
2018-11-01T16:26:48.909Z,62.23
2018-11-01T16:29:16.990Z,62.21
2018-11-01T16:31:45.041Z,62.41
2018-11-01T16:34:13.329Z,61.87
2018-11-01T16:36:41.484Z,62.50
2018-11-01T16:39:10.718Z,62.43
2018-11-01T16:41:38.989Z,62.62
2018-11-01T16:44:07.172Z,62.95
2018-11-01T16:46:35.233Z,62.80
2018-11-01T16:49:03.324Z,63.14
2018-11-01T16:51:31.415Z,63.34
2018-11-01T16:53:59.494Z,63.00
2018-11-01T16:56:27.561Z,63.66
2018-11-01T16:58:55.640Z,63.84
2018-11-01T17:01:23.728Z,63.76
2018-11-01T17:03:52.293Z,63.28
2018-11-01T17:06:20.410Z,63.97
2018-11-01T17:08:48.505Z,63.45
2018-11-01T17:11:16.573Z,63.50
2018-11-01T17:13:44.667Z,63.63
2018-11-01T17:16:12.735Z,63.26
2018-11-01T17:18:40.803Z,63.60
2018-11-01T17:21:08.883Z,63.88
2018-11-01T17:23:36.990Z,64.12
2018-11-01T17:26:05.168Z,63.78
2018-11-01T17:28:33.276Z,63.92
2018-11-01T17:31:01.380Z,63.87
2018-11-01T17:33:29.456Z,63.96
2018-11-01T17:35:57.576Z,64.60
2018-11-01T17:38:25.644Z,64.15
2018-11-01T17:40:53.735Z,64.26
2018-11-01T17:43:21.865Z,64.94
2018-11-01T17:45:52.057Z,64.57
2018-11-01T17:48:21.229Z,64.92
2018-11-01T17:50:49.348Z,65.11
2018-11-01T17:53:18.212Z,65.23
2018-11-01T17:55:46.284Z,64.31
2018-11-01T17:58:14.351Z,65.48
2018-11-01T18:00:42.464Z,65.58
2018-11-01T18:03:10.532Z,65.24
2018-11-01T18:05:38.607Z,65.34
2018-11-01T18:08:06.811Z,65.68
2018-11-01T18:10:34.905Z,65.27
2018-11-01T18:13:02.976Z,65.77
2018-11-01T18:15:31.188Z,65.53
2018-11-01T18:17:59.264Z,66.03
2018-11-01T18:20:27.355Z,66.27
2018-11-01T18:22:55.452Z,65.55
2018-11-01T18:25:23.603Z,65.52
2018-11-01T18:27:51.710Z,65.39
2018-11-01T18:30:19.967Z,65.59
2018-11-01T18:32:48.312Z,65.42
2018-11-01T18:35:16.051Z,65.28
2018-11-01T18:37:44.151Z,65.56
2018-11-01T18:40:14.638Z,65.25
2018-11-01T18:42:42.722Z,65.91
2018-11-01T18:45:12.200Z,65.57
2018-11-01T18:47:40.335Z,65.63
2018-11-01T18:50:09.397Z,65.58
2018-11-01T18:52:37.465Z,65.77
2018-11-01T18:55:06.638Z,65.27
2018-11-01T18:57:34.711Z,65.41
2018-11-01T19:00:02.777Z,65.94
2018-11-01T19:02:30.856Z,65.95
2018-11-01T19:04:59.061Z,65.92
2018-11-01T19:07:27.202Z,65.98
2018-11-01T19:09:55.444Z,65.96
2018-11-01T19:12:23.576Z,66.33
2018-11-01T19:14:51.645Z,66.37
2018-11-01T19:17:19.706Z,65.90
2018-11-01T19:19:47.776Z,66.17
2018-11-01T19:22:15.846Z,66.17
2018-11-01T19:24:43.917Z,66.59
2018-11-01T19:27:12.178Z,66.10
2018-11-01T19:29:40.045Z,66.42
2018-11-01T19:32:08.144Z,66.25
2018-11-01T19:34:36.701Z,66.83
2018-11-01T19:37:04.435Z,66.44
2018-11-01T19:39:32.513Z,67.01
2018-11-01T19:42:00.592Z,66.99
2018-11-01T19:44:28.683Z,66.78
2018-11-01T19:46:56.761Z,66.47
2018-11-01T19:49:24.853Z,66.40
2018-11-01T19:51:52.985Z,66.81
2018-11-01T19:54:21.126Z,66.17
2018-11-01T19:56:49.146Z,66.35
2018-11-01T19:59:17.228Z,66.30
2018-11-01T20:01:45.285Z,66.86
2018-11-01T20:04:13.388Z,66.53
2018-11-01T20:06:41.420Z,66.94
2018-11-01T20:09:09.767Z,66.82
2018-11-01T20:11:37.879Z,66.22
2018-11-01T20:14:06.112Z,66.40
2018-11-01T20:16:34.193Z,66.33
2018-11-01T20:19:02.314Z,66.60
2018-11-01T20:21:30.307Z,66.36
2018-11-01T20:23:58.373Z,66.42
2018-11-01T20:26:26.432Z,66.64
2018-11-01T20:28:54.488Z,66.37
2018-11-01T20:31:22.880Z,66.52
2018-11-01T20:33:50.849Z,66.95
2018-11-01T20:36:18.919Z,66.96
2018-11-01T20:38:46.969Z,67.04
2018-11-01T20:41:15.025Z,67.31
2018-11-01T20:43:43.096Z,67.43
2018-11-01T20:46:11.181Z,67.43
2018-11-01T20:48:39.253Z,68.18
2018-11-01T20:51:07.340Z,68.38
2018-11-01T20:53:35.437Z,67.84
2018-11-01T20:56:03.508Z,68.49
2018-11-01T20:58:31.560Z,68.01
2018-11-01T21:00:59.630Z,68.81
2018-11-01T21:03:27.803Z,68.14
2018-11-01T21:05:55.889Z,68.30
2018-11-01T21:08:24.028Z,68.65
2018-11-01T21:10:52.156Z,68.64
2018-11-01T21:13:20.202Z,68.78
2018-11-01T21:15:48.322Z,69.30
2018-11-01T21:18:16.376Z,69.07
2018-11-01T21:20:44.436Z,68.96
2018-11-01T21:23:12.504Z,68.90
2018-11-01T21:25:40.561Z,69.43
2018-11-01T21:28:08.657Z,69.30
2018-11-01T21:30:36.714Z,68.80
2018-11-01T21:33:04.808Z,69.08
2018-11-01T21:35:33.375Z,69.42
2018-11-01T21:38:01.111Z,69.58
2018-11-01T21:40:29.188Z,69.69
2018-11-01T21:42:57.257Z,69.99
2018-11-01T21:45:25.390Z,69.97
2018-11-01T21:47:54.080Z,69.96
2018-11-01T21:50:22.132Z,70.06
2018-11-01T21:52:50.300Z,70.55
2018-11-01T21:55:18.323Z,70.71
2018-11-01T21:57:46.396Z,70.65
2018-11-01T22:00:14.465Z,70.56
2018-11-01T22:02:42.840Z,70.75
2018-11-01T22:05:11.627Z,70.59
2018-11-01T22:07:39.991Z,70.62
2018-11-01T22:10:08.473Z,70.92
2018-11-01T22:12:36.582Z,71.34
2018-11-01T22:15:07.960Z,70.96
2018-11-01T22:17:36.049Z,71.83
2018-11-01T22:20:04.367Z,71.40
2018-11-01T22:22:32.439Z,71.68
2018-11-01T22:25:00.508Z,71.45
2018-11-01T22:27:28.602Z,71.41
2018-11-01T22:29:56.674Z,71.66
2018-11-01T22:32:25.730Z,71.70
2018-11-01T22:34:54.046Z,71.39
2018-11-01T22:37:22.100Z,71.53
2018-11-01T22:39:50.245Z,71.73
2018-11-01T22:42:18.268Z,72.23
2018-11-01T22:44:46.316Z,72.59
2018-11-01T22:47:14.381Z,72.19
2018-11-01T22:49:42.433Z,72.12
2018-11-01T22:52:10.519Z,72.35
2018-11-01T22:54:38.589Z,72.96
2018-11-01T22:57:06.692Z,72.98
2018-11-01T22:59:34.769Z,72.78
2018-11-01T23:02:02.838Z,72.91
2018-11-01T23:04:30.990Z,73.53
2018-11-01T23:07:05.528Z,72.79
2018-11-01T23:09:33.594Z,72.80
2018-11-01T23:12:01.669Z,73.40
2018-11-01T23:14:29.737Z,73.34
2018-11-01T23:16:57.820Z,72.94
2018-11-01T23:19:25.877Z,73.34
2018-11-01T23:21:53.940Z,73.45
2018-11-01T23:24:22.025Z,73.35
2018-11-01T23:26:50.084Z,73.98
2018-11-01T23:29:18.163Z,74.32
2018-11-01T23:31:46.223Z,74.02
2018-11-01T23:34:14.283Z,73.79
2018-11-01T23:36:47.840Z,74.37
2018-11-01T23:39:21.348Z,73.72
2018-11-01T23:41:54.854Z,74.13
2018-11-01T23:44:28.256Z,74.37
2018-11-01T23:47:01.775Z,73.78
2018-11-01T23:50:08.928Z,74.87
2018-11-01T23:52:37.982Z,74.66
2018-11-01T23:55:06.301Z,74.39
2018-11-01T23:57:34.354Z,74.59
